Time;durP1;ratioP1;P1;durP2;ratioP2;P2;SDS_P1;SDS_P2;PMS_P1;PMS_P2;Temp;Humidity;BMP_temperature;BMP_pressure;BME280_temperature;BME280_humidity;BME280_pressure;Samples;Min_cycle;Max_cycle;Signal;HPM_P1;HPM_P2
2024/04/21 00:05:50;;;;;;;7.40;3.50;;;;;;;4.37;100.00;98887.64;273202;1269;22540;-81
2024/04/21 00:11:52;;;;;;;5.90;3.00;;;;;;;4.37;100.00;98892.30;273157;1269;22531;-80
2024/04/21 00:18:01;;;;;;;8.60;4.90;;;;;;;4.37;100.00;98895.91;272660;1267;22576;-81
2024/04/21 00:24:05;;;;;;;7.90;4.70;;;;;;;4.36;100.00;98895.42;271513;1269;22339;-81
2024/04/21 00:30:10;;;;;;;7.10;4.70;;;;;;;4.31;100.00;98897.11;273071;1269;22470;-81
2024/04/21 00:37:04;;;;;;;5.60;4.10;;;;;;;4.18;100.00;98901.69;270791;1260;23193;-80
2024/04/21 00:43:47;;;;;;;8.90;5.20;;;;;;;4.06;100.00;98905.29;273002;1269;22658;-80
2024/04/21 00:49:49;;;;;;;6.10;4.80;;;;;;;4.00;100.00;98908.02;270646;1269;23420;-81
2024/04/21 00:55:52;;;;;;;7.50;4.90;;;;;;;3.98;100.00;98910.98;269972;1269;22604;-80
2024/04/21 01:02:34;;;;;;;8.10;4.80;;;;;;;3.94;100.00;98913.98;269844;1269;24279;-81
2024/04/21 01:08:39;;;;;;;6.40;4.30;;;;;;;3.89;100.00;98918.52;271107;1269;22346;-81
2024/04/21 01:14:41;;;;;;;5.20;3.90;;;;;;;3.88;100.00;98919.73;273058;1266;22265;-81
2024/04/21 01:21:03;;;;;;;7.80;4.40;;;;;;;3.90;100.00;98918.64;273897;1269;22364;-81
2024/04/21 01:27:05;;;;;;;8.10;4.00;;;;;;;3.91;100.00;98920.09;272507;1269;22546;-79
2024/04/21 01:33:06;;;;;;;5.90;4.20;;;;;;;3.90;100.00;98923.58;269567;1269;22529;-82
2024/04/21 01:39:28;;;;;;;5.90;4.50;;;;;;;3.84;100.00;98926.17;271079;1269;22255;-81
2024/04/21 01:45:53;;;;;;;5.70;4.10;;;;;;;3.78;100.00;98925.50;273725;1253;22283;-82
2024/04/21 01:52:31;;;;;;;6.40;4.30;;;;;;;3.74;100.00;98927.27;273504;1269;22512;-82
2024/04/21 01:59:13;;;;;;;6.60;3.90;;;;;;;3.74;100.00;98928.34;273235;1269;22455;-82
2024/04/21 02:05:15;;;;;;;5.00;3.80;;;;;;;3.70;100.00;98929.29;273487;1269;22455;-82
2024/04/21 02:11:18;;;;;;;6.20;4.20;;;;;;;3.66;100.00;98928.00;273266;1263;22381;-82
2024/04/21 02:17:21;;;;;;;9.20;5.90;;;;;;;3.67;100.00;98926.61;273392;1270;22354;-82
2024/04/21 02:23:47;;;;;;;8.30;5.80;;;;;;;3.61;100.00;98928.09;273347;1269;22275;-82
2024/04/21 02:30:09;;;;;;;8.40;5.90;;;;;;;3.59;100.00;98931.25;273607;1254;23072;-82
2024/04/21 02:36:51;;;;;;;5.30;4.00;;;;;;;3.56;100.00;98936.11;273974;1270;22262;-83
2024/04/21 02:43:54;;;;;;;4.10;3.10;;;;;;;3.45;100.00;98933.23;269601;1273;22583;-81
2024/04/21 02:50:34;;;;;;;5.40;4.10;;;;;;;3.39;100.00;98939.86;269103;1272;22305;-81
2024/04/21 02:56:48;;;;;;;5.40;4.10;;;;;;;3.23;100.00;98936.33;268985;1272;23052;-81
2024/04/21 03:03:30;;;;;;;8.50;4.80;;;;;;;3.08;100.00;98939.85;271752;1272;22496;-82
2024/04/21 03:09:52;;;;;;;7.70;4.80;;;;;;;2.95;100.00;98940.33;270878;1272;22275;-82
2024/04/21 03:16:16;;;;;;;7.10;5.20;;;;;;;2.90;100.00;98945.45;270619;1269;22275;-82
2024/04/21 03:22:19;;;;;;;7.80;5.60;;;;;;;2.90;100.00;98944.75;270360;1269;22532;-82
2024/04/21 03:28:21;;;;;;;9.10;5.50;;;;;;;2.91;100.00;98946.46;269434;1269;22550;-82
2024/04/21 03:35:06;;;;;;;8.50;5.90;;;;;;;2.92;100.00;98950.47;272240;1269;23065;-82
2024/04/21 03:41:22;;;;;;;9.00;6.70;;;;;;;2.90;100.00;98953.18;272091;1269;22460;-82
2024/04/21 03:47:44;;;;;;;8.80;6.00;;;;;;;2.84;100.00;98956.97;272942;1268;22278;-81
2024/04/21 03:53:46;;;;;;;10.20;6.80;;;;;;;2.83;100.00;98963.33;272381;1253;22548;-82
2024/04/21 03:59:47;;;;;;;10.90;7.40;;;;;;;2.79;100.00;98960.83;269909;1269;22436;-82
2024/04/21 04:06:09;;;;;;;10.30;8.10;;;;;;;2.70;100.00;98966.27;271960;1261;22472;-82
2024/04/21 04:12:53;;;;;;;12.40;8.60;;;;;;;2.60;100.00;98965.84;273685;1272;22272;-82
2024/04/21 04:19:37;;;;;;;12.70;8.90;;;;;;;2.53;100.00;98962.13;273749;1270;22279;-83
2024/04/21 04:25:38;;;;;;;12.00;9.10;;;;;;;2.48;100.00;98965.96;273427;1268;22255;-83
2024/04/21 04:32:00;;;;;;;15.90;10.30;;;;;;;2.50;100.00;98975.52;273966;1269;22289;-82
2024/04/21 04:38:11;;;;;;;16.30;11.30;;;;;;;2.48;100.00;98983.48;273268;1268;22269;-82
2024/04/21 04:44:16;;;;;;;16.40;11.40;;;;;;;2.48;100.00;98983.27;273606;1269;23212;-82
2024/04/21 04:50:18;;;;;;;16.80;12.00;;;;;;;2.48;100.00;98982.70;272512;1269;22533;-82
2024/04/21 04:56:19;;;;;;;17.60;12.30;;;;;;;2.52;100.00;98987.58;273550;1259;22367;-82
2024/04/21 05:02:21;;;;;;;17.70;12.20;;;;;;;2.56;100.00;98986.93;269603;1263;23876;-83
2024/04/21 05:08:22;;;;;;;18.80;12.70;;;;;;;2.62;100.00;98996.20;269158;1262;22418;-82
2024/04/21 05:15:04;;;;;;;21.30;14.40;;;;;;;2.67;100.00;98997.00;271637;1269;23168;-83
2024/04/21 05:21:46;;;;;;;16.80;12.50;;;;;;;2.67;100.00;98994.88;268963;1267;22543;-83
2024/04/21 05:27:48;;;;;;;17.20;12.30;;;;;;;2.69;100.00;99003.95;269467;1272;25382;-82
2024/04/21 05:33:53;;;;;;;19.60;13.30;;;;;;;2.71;100.00;99009.01;271390;1272;22299;-82
2024/04/21 05:40:08;;;;;;;19.70;12.90;;;;;;;2.78;100.00;99006.89;272696;1272;22399;-83
2024/04/21 05:46:10;;;;;;;19.20;12.50;;;;;;;2.76;100.00;99009.70;272660;1272;23000;-85
2024/04/21 05:52:14;;;;;;;17.40;12.60;;;;;;;2.80;100.00;99013.24;271222;1269;22589;-82
2024/04/21 05:58:16;;;;;;;16.80;11.90;;;;;;;2.90;100.00;99015.36;269729;1269;22522;-82
2024/04/21 06:04:41;;;;;;;18.60;12.50;;;;;;;2.91;100.00;99019.66;269809;1269;22396;-82
2024/04/21 06:11:24;;;;;;;17.30;12.40;;;;;;;2.86;100.00;99020.91;271305;1269;22595;-82
2024/04/21 06:18:00;;;;;;;18.00;12.60;;;;;;;2.86;100.00;99028.10;273690;1269;22261;-83
2024/04/21 06:24:37;;;;;;;17.50;12.60;;;;;;;2.93;100.00;99028.94;273724;1269;22249;-83
2024/04/21 06:31:19;;;;;;;17.50;12.20;;;;;;;2.99;100.00;99033.21;273638;1270;22278;-84
2024/04/21 06:37:22;;;;;;;24.60;14.50;;;;;;;2.99;100.00;99032.96;273660;1269;22248;-83
2024/04/21 06:43:24;;;;;;;19.10;13.00;;;;;;;3.03;100.00;99033.58;273643;1270;22234;-83
2024/04/21 06:49:55;;;;;;;18.60;13.10;;;;;;;3.14;100.00;99034.81;273977;1269;23009;-83
2024/04/21 06:56:04;;;;;;;16.30;11.00;;;;;;;3.31;100.00;99032.31;273495;1266;22269;-83
2024/04/21 07:02:29;;;;;;;16.90;12.20;;;;;;;3.46;100.00;99040.73;273971;1272;22293;-83
2024/04/21 07:08:34;;;;;;;18.40;12.60;;;;;;;3.49;100.00;99045.17;274016;1270;22229;-83
2024/04/21 07:14:35;;;;;;;17.60;12.70;;;;;;;3.56;100.00;99045.09;273494;1269;22307;-83
2024/04/21 07:20:57;;;;;;;19.20;12.80;;;;;;;3.59;100.00;99044.63;273588;1269;22286;-83
2024/04/21 07:27:39;;;;;;;16.50;11.70;;;;;;;3.62;100.00;99045.95;271019;1269;22580;-83
2024/04/21 07:34:15;;;;;;;15.90;11.60;;;;;;;3.66;100.00;99048.79;269621;1265;22769;-82
2024/04/21 07:41:01;;;;;;;18.30;12.20;;;;;;;3.65;100.00;99049.09;273187;1269;22459;-84
2024/04/21 07:47:20;;;;;;;24.30;13.40;;;;;;;3.64;100.00;99053.23;273619;1266;22225;-83
2024/04/21 07:54:02;;;;;;;18.40;12.80;;;;;;;3.64;100.00;99060.02;273413;1269;22518;-83
2024/04/21 08:00:06;;;;;;;16.40;11.40;;;;;;;3.61;100.00;99063.85;271664;1269;22548;-83
2024/04/21 08:06:28;;;;;;;17.40;12.50;;;;;;;3.58;100.00;99059.00;268691;1269;22625;-83
2024/04/21 08:12:53;;;;;;;16.40;11.90;;;;;;;3.67;100.00;99057.67;268279;1270;23134;-82
2024/04/21 08:19:39;;;;;;;15.00;10.40;;;;;;;3.73;100.00;99055.65;268574;1266;22714;-83
2024/04/21 08:26:15;;;;;;;;;;;;;;;3.85;100.00;99063.09;273578;1271;22438;-83
2024/04/21 08:33:14;;;;;;;16.20;10.50;;;;;;;3.94;100.00;99071.92;273427;1271;22275;-82
2024/04/21 08:40:22;;;;;;;13.00;9.00;;;;;;;3.97;100.00;99076.13;272158;1270;23057;-83
2024/04/21 08:46:45;;;;;;;13.50;10.10;;;;;;;4.02;100.00;99076.42;272563;1268;22636;-83
2024/04/21 08:52:48;;;;;;;12.60;9.40;;;;;;;4.08;100.00;99082.30;273775;1269;25857;-83
2024/04/21 08:58:50;;;;;;;15.00;10.60;;;;;;;4.15;100.00;99084.40;273416;1269;22358;-84
2024/04/21 09:05:20;;;;;;;14.40;10.90;;;;;;;4.22;100.00;99080.29;273484;1269;22634;-83
2024/04/21 09:11:51;;;;;;;13.10;8.70;;;;;;;4.40;100.00;99080.24;273617;1269;22223;-84
2024/04/21 09:17:53;;;;;;;11.60;8.80;;;;;;;4.47;100.00;99085.77;273946;1269;178885;-83
2024/04/21 09:24:17;;;;;;;10.80;8.40;;;;;;;4.55;100.00;99079.30;273483;1269;22905;-83
2024/04/21 09:31:00;;;;;;;12.70;8.80;;;;;;;4.75;100.00;99076.52;271805;1263;22295;-83
2024/04/21 09:37:29;;;;;;;10.70;8.70;;;;;;;4.85;100.00;99076.48;273867;1269;23847;-84
2024/04/21 09:43:33;;;;;;;11.10;7.90;;;;;;;4.99;100.00;99074.52;273450;1269;23174;-84
2024/04/21 09:50:14;;;;;;;9.60;7.70;;;;;;;5.23;100.00;99069.89;269778;1268;22528;-83
2024/04/21 09:56:20;;;;;;;8.70;7.20;;;;;;;5.31;100.00;99073.34;268921;1269;25659;-84
2024/04/21 10:02:23;;;;;;;8.40;6.50;;;;;;;5.30;100.00;99073.31;271966;1269;22303;-83
2024/04/21 10:09:06;;;;;;;10.00;8.10;;;;;;;5.33;100.00;99074.48;269808;1269;23350;-82
2024/04/21 10:15:28;;;;;;;8.50;6.70;;;;;;;5.28;100.00;99073.92;269652;1269;22557;-83
2024/04/21 10:21:32;;;;;;;9.90;7.40;;;;;;;5.31;100.00;99075.60;272575;1256;22254;-82
2024/04/21 10:27:40;;;;;;;7.60;6.70;;;;;;;5.41;100.00;99070.96;273305;1261;23112;-82
2024/04/21 10:33:42;;;;;;;8.50;6.80;;;;;;;5.47;100.00;99070.30;273972;1273;23097;-83
2024/04/21 10:40:06;;;;;;;10.00;7.60;;;;;;;5.41;100.00;99072.84;273683;1272;22357;-82
2024/04/21 10:46:48;;;;;;;10.00;7.10;;;;;;;5.31;100.00;99079.15;273782;1266;22269;-82
2024/04/21 10:53:30;;;;;;;10.10;7.50;;;;;;;5.28;100.00;99082.64;272885;1260;22599;-83
2024/04/21 10:59:32;;;;;;;11.00;8.00;;;;;;;5.21;100.00;99081.98;273563;1265;22397;-82
2024/04/21 11:06:03;;;;;;;9.90;7.50;;;;;;;5.12;100.00;99084.94;272580;1269;22565;-82
2024/04/21 11:12:05;;;;;;;9.90;8.10;;;;;;;5.16;100.00;99083.23;269852;1265;26585;-82
2024/04/21 11:18:08;;;;;;;9.40;7.60;;;;;;;5.20;100.00;99076.98;269275;1269;22548;-81
2024/04/21 11:24:10;;;;;;;10.00;7.70;;;;;;;5.28;100.00;99079.76;269779;1267;22532;-82
2024/04/21 11:30:23;;;;;;;11.30;8.50;;;;;;;5.31;100.00;99082.40;270089;1257;22269;-81
2024/04/21 11:36:25;;;;;;;11.60;8.10;;;;;;;5.22;100.00;99081.88;273277;1266;22497;-81
2024/04/21 11:42:27;;;;;;;10.40;7.20;;;;;;;5.21;100.00;99076.57;272869;1269;22250;-82
2024/04/21 11:48:33;;;;;;;9.50;7.90;;;;;;;5.31;100.00;99077.14;272838;1269;22511;-83
2024/04/21 11:54:56;;;;;;;11.60;8.80;;;;;;;5.37;100.00;99077.80;273976;1269;22683;-82
2024/04/21 12:01:01;;;;;;;13.90;9.70;;;;;;;5.39;100.00;99076.86;272365;1269;22284;-82
2024/04/21 12:07:04;;;;;;;14.70;11.50;;;;;;;5.42;100.00;99069.85;272288;1269;23670;-82
2024/04/21 12:13:16;;;;;;;14.30;10.90;;;;;;;5.37;100.00;99068.11;271223;1269;22445;-82
2024/04/21 12:19:21;;;;;;;17.80;12.20;;;;;;;5.34;100.00;99063.52;270629;1269;22588;-82
2024/04/21 12:25:22;;;;;;;19.50;13.30;;;;;;;5.32;100.00;99069.95;272646;1269;22316;-82
2024/04/21 12:31:44;;;;;;;20.10;11.60;;;;;;;5.27;100.00;99077.38;273658;1269;22470;-82
2024/04/21 12:37:48;;;;;;;9.00;7.60;;;;;;;5.14;100.00;99075.64;271448;1269;26714;-82
2024/04/21 12:43:50;;;;;;;8.50;6.70;;;;;;;5.01;100.00;99071.68;273558;1269;22816;-82
2024/04/21 12:49:52;;;;;;;8.20;5.90;;;;;;;5.03;100.00;99067.84;269418;1267;24257;-84
2024/04/21 12:55:53;;;;;;;6.90;5.40;;;;;;;5.03;100.00;99068.21;270792;1269;22398;-83
2024/04/21 13:02:32;;;;;;;7.50;5.20;;;;;;;5.03;100.00;99065.13;273780;1270;22305;-82
2024/04/21 13:08:55;;;;;;;7.60;5.70;;;;;;;5.02;100.00;99068.02;273416;1269;22270;-82
2024/04/21 13:15:33;;;;;;;6.90;4.90;;;;;;;5.10;100.00;99075.96;273270;1269;23247;-82
2024/04/21 13:22:15;;;;;;;6.90;5.20;;;;;;;5.18;100.00;99074.75;273242;1269;22479;-82
2024/04/21 13:28:57;;;;;;;9.80;5.00;;;;;;;5.12;100.00;99075.42;273832;1269;22248;-83
2024/04/21 13:35:42;;;;;;;6.40;4.70;;;;;;;5.07;100.00;99079.05;273502;1260;22532;-82
2024/04/21 13:42:04;;;;;;;5.80;4.60;;;;;;;4.95;100.00;99083.91;273795;1269;22248;-81
2024/04/21 13:48:46;;;;;;;5.90;4.80;;;;;;;4.81;100.00;99089.23;274005;1260;23631;-82
2024/04/21 13:55:08;;;;;;;7.70;5.10;;;;;;;4.73;100.00;99088.19;273786;1277;22224;-81
2024/04/21 14:01:11;;;;;;;7.70;5.40;;;;;;;4.78;100.00;99081.76;271301;1269;22535;-82
2024/04/21 14:07:52;;;;;;;7.70;6.00;;;;;;;4.84;100.00;99081.19;272947;1269;23740;-82
2024/04/21 14:14:21;;;;;;;6.10;5.00;;;;;;;4.90;100.00;99082.30;270326;1269;23451;-82
2024/04/21 14:20:45;;;;;;;7.60;5.50;;;;;;;4.83;100.00;99081.92;273474;1266;23289;-81
2024/04/21 14:27:27;;;;;;;6.40;4.90;;;;;;;4.79;100.00;99083.73;273748;1269;22236;-81
2024/04/21 14:33:49;;;;;;;9.10;6.50;;;;;;;4.75;100.00;99079.37;272055;1269;22556;-81
2024/04/21 14:39:54;;;;;;;9.80;7.10;;;;;;;4.75;100.00;99077.10;269840;1269;22554;-80
2024/04/21 14:45:56;;;;;;;9.50;6.50;;;;;;;4.81;100.00;99082.82;269495;1269;24925;-81
2024/04/21 14:52:38;;;;;;;7.90;6.40;;;;;;;4.76;100.00;99080.94;271857;1269;22462;-82
2024/04/21 14:59:08;;;;;;;9.50;6.10;;;;;;;4.64;100.00;99076.85;274123;1270;22348;-81
2024/04/21 15:05:20;;;;;;;9.70;6.80;;;;;;;4.61;100.00;99076.34;273534;1269;23076;-81
2024/04/21 15:11:47;;;;;;;11.10;7.60;;;;;;;4.58;100.00;99075.86;273858;1269;22316;-82
2024/04/21 15:17:48;;;;;;;10.60;6.90;;;;;;;4.51;100.00;99072.60;271463;1269;25010;-82
2024/04/21 15:23:50;;;;;;;11.10;7.40;;;;;;;4.44;100.00;99075.50;270810;1269;23875;-82
2024/04/21 15:29:51;;;;;;;11.00;7.50;;;;;;;4.40;100.00;99072.96;270799;1269;22560;-82
2024/04/21 15:35:53;;;;;;;11.40;7.90;;;;;;;4.37;100.00;99070.29;270685;1266;25476;-82
2024/04/21 15:42:38;;;;;;;15.40;9.30;;;;;;;4.37;100.00;99072.02;269800;1269;22630;-82
2024/04/21 15:49:00;;;;;;;10.70;7.70;;;;;;;4.35;100.00;99071.69;272697;1269;22260;-82
2024/04/21 15:55:05;;;;;;;11.80;8.30;;;;;;;4.33;100.00;99069.54;270103;1269;22571;-81
2024/04/21 16:01:10;;;;;;;13.50;9.10;;;;;;;4.28;100.00;99073.29;272290;1269;24210;-81
2024/04/21 16:08:18;;;;;;;12.50;9.50;;;;;;;4.28;100.00;99077.91;269733;1269;22962;-81
2024/04/21 16:14:41;;;;;;;13.10;8.50;;;;;;;4.32;100.00;99084.96;273735;1272;23145;-81
2024/04/21 16:20:42;;;;;;;16.50;9.40;;;;;;;4.31;100.00;99090.12;272092;1269;22507;-81
2024/04/21 16:26:44;;;;;;;12.60;9.60;;;;;;;4.32;100.00;99096.53;269556;1264;22541;-82
2024/04/21 16:32:45;;;;;;;11.40;8.60;;;;;;;4.36;100.00;99098.60;270261;1261;23964;-81
2024/04/21 16:38:47;;;;;;;13.00;8.80;;;;;;;4.41;100.00;99106.54;272070;1269;23116;-81
2024/04/21 16:44:50;;;;;;;13.80;9.30;;;;;;;4.45;100.00;99105.29;272797;1269;22427;-82
2024/04/21 16:50:52;;;;;;;11.10;8.70;;;;;;;4.45;100.00;99105.59;273392;1269;23279;-81
2024/04/21 16:57:34;;;;;;;14.70;9.80;;;;;;;4.42;100.00;99107.73;265892;1269;10002136;-81
2024/04/21 17:03:37;;;;;;;13.10;9.70;;;;;;;4.41;100.00;99120.94;273334;1269;23583;-81
2024/04/21 17:10:00;;;;;;;13.10;9.00;;;;;;;4.38;100.00;99124.85;273711;1260;22273;-81
2024/04/21 17:16:04;;;;;;;11.50;8.40;;;;;;;4.37;100.00;99128.86;273170;1269;22254;-82
2024/04/21 17:22:05;;;;;;;14.30;9.20;;;;;;;4.36;100.00;99135.01;273060;1269;22280;-82
2024/04/21 17:28:47;;;;;;;12.50;9.10;;;;;;;4.33;100.00;99136.52;270666;1269;22543;-82
2024/04/21 17:35:11;;;;;;;13.40;9.50;;;;;;;4.30;100.00;99139.42;273820;1270;23043;-81
2024/04/21 17:41:57;;;;;;;17.60;12.80;;;;;;;4.30;100.00;99142.97;271247;1263;22281;-81
2024/04/21 17:48:06;;;;;;;20.30;13.60;;;;;;;4.29;100.00;99149.29;270466;1257;23472;-81
2024/04/21 17:54:08;;;;;;;17.80;13.50;;;;;;;4.27;100.00;99155.02;271496;1269;23001;-82
2024/04/21 18:00:10;;;;;;;18.70;13.30;;;;;;;4.22;100.00;99161.33;270726;1269;22365;-85
2024/04/21 18:06:12;;;;;;;22.00;14.10;;;;;;;4.17;100.00;99162.69;272619;1269;22247;-82
2024/04/21 18:12:14;;;;;;;25.80;16.30;;;;;;;4.16;100.00;99173.85;272659;1259;23500;-82
2024/04/21 18:18:16;;;;;;;28.00;17.90;;;;;;;4.14;100.00;99178.05;270525;1269;25240;-82
2024/04/21 18:25:01;;;;;;;23.20;16.80;;;;;;;4.13;100.00;99184.27;272359;1269;22296;-82
2024/04/21 18:31:30;;;;;;;24.30;16.50;;;;;;;4.12;100.00;99192.15;273291;1269;22259;-82
2024/04/21 18:37:57;;;;;;;24.00;17.60;;;;;;;4.10;100.00;99189.73;272007;1269;22375;-82
2024/04/21 18:44:18;;;;;;;25.20;17.90;;;;;;;4.05;100.00;99190.20;272557;1267;22675;-81
2024/04/21 18:50:22;;;;;;;23.90;17.00;;;;;;;4.00;100.00;99192.60;272972;1269;22866;-81
2024/04/21 18:56:39;;;;;;;25.90;18.30;;;;;;;3.96;100.00;99194.11;273192;1264;22903;-82
2024/04/21 19:03:01;;;;;;;28.80;19.50;;;;;;;3.96;100.00;99194.90;273941;1270;22646;-82
2024/04/21 19:09:48;;;;;;;29.10;19.50;;;;;;;3.96;100.00;99193.98;273608;1270;23155;-82
2024/04/21 19:15:50;;;;;;;34.20;23.20;;;;;;;3.97;100.00;99195.31;273685;1269;22365;-82
2024/04/21 19:21:53;;;;;;;35.50;24.00;;;;;;;3.97;100.00;99196.87;273214;1269;24215;-83
2024/04/21 19:28:15;;;;;;;33.20;22.90;;;;;;;3.99;100.00;99196.04;273745;1269;22879;-82
2024/04/21 19:34:36;;;;;;;34.40;23.10;;;;;;;4.00;100.00;99194.20;271956;1269;22532;-82
2024/04/21 19:40:58;;;;;;;34.50;22.90;;;;;;;3.99;100.00;99199.35;272826;1269;23249;-82
2024/04/21 19:47:21;;;;;;;32.40;20.70;;;;;;;3.99;100.00;99197.02;272470;1269;23073;-82
2024/04/21 19:53:44;;;;;;;34.70;21.70;;;;;;;3.97;100.00;99194.84;270654;1269;22297;-81
2024/04/21 20:00:06;;;;;;;36.90;23.70;;;;;;;3.97;100.00;99193.94;273381;1269;23095;-82
2024/04/21 20:06:35;;;;;;;42.20;24.60;;;;;;;4.00;100.00;99188.86;273642;1269;23151;-82
2024/04/21 20:12:58;;;;;;;36.60;24.60;;;;;;;4.03;100.00;99190.29;273857;1270;22472;-82
2024/04/21 20:19:40;;;;;;;38.80;24.50;;;;;;;4.04;100.00;99189.41;273490;1269;22260;-82
2024/04/21 20:26:37;;;;;;;45.20;26.70;;;;;;;4.06;100.00;99190.35;273793;1276;23498;-82
2024/04/21 20:32:42;;;;;;;39.40;25.50;;;;;;;4.07;100.00;99188.16;273429;1269;22390;-82
2024/04/21 20:39:25;;;;;;;48.20;29.30;;;;;;;4.07;100.00;99188.89;273859;1269;23293;-82
2024/04/21 20:45:46;;;;;;;42.20;27.20;;;;;;;4.09;100.00;99189.54;273554;1269;22356;-82
2024/04/21 20:51:48;;;;;;;48.50;29.70;;;;;;;4.10;100.00;99187.11;273565;1269;22293;-83
2024/04/21 20:57:49;;;;;;;45.10;28.80;;;;;;;4.06;100.00;99187.46;272883;1269;23110;-82
2024/04/21 21:03:51;;;;;;;41.60;27.10;;;;;;;4.02;100.00;99189.95;273121;1268;22913;-82
2024/04/21 21:10:14;;;;;;;47.80;29.40;;;;;;;4.04;100.00;99190.50;270683;1269;22425;-83
2024/04/21 21:16:16;;;;;;;50.40;32.00;;;;;;;4.07;100.00;99194.09;268716;1269;5460640;-82
2024/04/21 21:22:19;;;;;;;50.80;32.00;;;;;;;4.07;100.00;99188.70;271780;1260;22570;-82
2024/04/21 21:29:06;;;;;;;52.00;32.70;;;;;;;4.08;100.00;99184.70;272804;1268;22469;-83
2024/04/21 21:35:31;;;;;;;56.90;32.90;;;;;;;4.08;100.00;99176.80;273697;1267;22266;-82
2024/04/21 21:41:32;;;;;;;51.10;31.80;;;;;;;4.09;100.00;99171.73;273455;1269;22405;-82
2024/04/21 21:47:36;;;;;;;57.90;34.10;;;;;;;4.12;100.00;99174.71;273599;1269;23550;-82
2024/04/21 21:54:18;;;;;;;51.30;32.60;;;;;;;4.12;100.00;99169.52;271060;1269;22532;-82
2024/04/21 22:00:21;;;;;;;49.40;32.30;;;;;;;4.10;100.00;99166.81;270158;1269;22522;-82
2024/04/21 22:06:22;;;;;;;58.70;34.90;;;;;;;4.12;100.00;99165.77;269568;1264;23447;-81
2024/04/21 22:12:24;;;;;;;60.30;35.80;;;;;;;4.13;100.00;99168.43;271631;1268;22406;-82
2024/04/21 22:18:46;;;;;;;56.60;33.30;;;;;;;4.15;100.00;99165.07;273274;1269;22630;-82
2024/04/21 22:24:48;;;;;;;54.90;33.00;;;;;;;4.18;100.00;99167.98;272645;1269;22425;-82
2024/04/21 22:30:50;;;;;;;50.50;30.50;;;;;;;4.20;100.00;99164.59;270297;1269;22568;-82
2024/04/21 22:37:15;;;;;;;55.60;32.00;;;;;;;4.21;100.00;99157.47;270895;1262;23045;-82
2024/04/21 22:43:53;;;;;;;48.90;30.50;;;;;;;4.19;100.00;99153.40;273182;1264;22265;-82
2024/04/21 22:50:12;;;;;;;50.50;30.70;;;;;;;4.20;100.00;99153.20;273360;1266;23483;-82
2024/04/21 22:56:32;;;;;;;48.20;29.20;;;;;;;4.22;100.00;99157.27;273585;1269;22252;-82
2024/04/21 23:02:37;;;;;;;42.60;24.90;;;;;;;4.24;100.00;99156.97;273493;1269;22372;-83
2024/04/21 23:08:59;;;;;;;29.00;19.10;;;;;;;4.18;100.00;99155.73;273310;1269;22298;-83
2024/04/21 23:15:21;;;;;;;22.10;15.00;;;;;;;4.09;100.00;99153.91;273705;1270;22258;-83
2024/04/21 23:21:43;;;;;;;21.60;14.00;;;;;;;4.02;100.00;99154.91;273603;1269;22275;-83
2024/04/21 23:27:49;;;;;;;17.60;12.90;;;;;;;4.02;100.00;99162.16;273383;1269;22272;-82
2024/04/21 23:34:14;;;;;;;15.40;11.50;;;;;;;4.00;100.00;99156.15;273204;1262;22918;-82
2024/04/21 23:40:16;;;;;;;16.70;10.80;;;;;;;3.98;100.00;99155.27;269591;1254;24109;-82
2024/04/21 23:46:18;;;;;;;15.20;10.80;;;;;;;3.95;100.00;99159.57;269626;1269;22568;-82
2024/04/21 23:52:20;;;;;;;14.90;9.90;;;;;;;3.90;100.00;99156.84;271738;1269;23420;-83
2024/04/21 23:58:28;;;;;;;13.80;9.40;;;;;;;3.86;100.00;99159.30;273530;1269;22274;-83
